Time;durP1;ratioP1;P1;durP2;ratioP2;P2;SDS_P1;SDS_P2;PMS_P1;PMS_P2;Temp;Humidity;BMP_temperature;BMP_pressure;BME280_temperature;BME280_humidity;BME280_pressure;Samples;Min_cycle;Max_cycle;Signal;HPM_P1;HPM_P2
2023/01/29 14:05:43;;;;;;;24.70;14.75;;;2.80;99.90;;;;;;6068175;23;20415;31
2023/01/29 14:08:12;;;;;;;31.08;14.48;;;2.80;99.90;;;;;;4927395;29;20086;-57
2023/01/29 14:10:37;;;;;;;47.00;16.45;;;2.80;99.90;;;;;;4928807;29;20290;-63
2023/01/29 14:13:03;;;;;;;31.45;15.57;;;2.70;99.90;;;;;;4932690;29;20032;-58
2023/01/29 14:15:37;;;;;;;35.72;16.67;;;2.70;99.90;;;;;;4935949;29;20039;-58
2023/01/29 14:18:13;;;;;;;33.80;15.48;;;2.70;99.90;;;;;;4935678;29;20411;-59
2023/01/29 14:20:49;;;;;;;54.80;20.00;;;2.70;99.90;;;;;;4968192;23;20116;-63
2023/01/29 14:23:34;;;;;;;39.30;17.30;;;2.70;99.90;;;;;;4991020;28;20072;-65
2023/01/29 14:26:03;;;;;;;37.75;18.05;;;2.70;99.90;;;;;;4997236;28;20074;-64
2023/01/29 14:28:32;;;;;;;46.40;19.58;;;2.60;99.90;;;;;;4991092;28;20030;-63
2023/01/29 14:30:58;;;;;;;34.70;16.58;;;2.50;99.90;;;;;;4985570;28;20037;-63
2023/01/29 14:33:26;;;;;;;40.58;18.50;;;2.50;99.90;;;;;;4986580;28;20041;-63
2023/01/29 14:35:55;;;;;;;39.50;18.83;;;3.00;99.90;;;;;;4987900;28;20096;-63
2023/01/29 14:38:25;;;;;;;36.85;17.27;;;2.50;99.90;;;;;;4994086;28;20094;-64
2023/01/29 14:41:06;;;;;;;42.17;19.33;;;2.50;99.90;;;;;;4979066;28;20513;-63
2023/01/29 14:43:32;;;;;;;42.25;19.13;;;3.10;99.90;;;;;;4974071;28;20035;-59
2023/01/29 14:46:49;;;;;;;43.53;19.58;;;2.40;99.90;;;;;;4975998;28;20026;-63
2023/01/29 14:49:48;;;;;;;42.95;19.20;;;2.30;99.90;;;;;;4931634;28;20058;-65
2023/01/29 14:52:15;;;;;;;47.38;20.17;;;2.40;99.90;;;;;;4955133;28;20047;-57
2023/01/29 14:54:42;;;;;;;45.38;20.35;;;2.40;99.90;;;;;;4955081;28;20487;-58
2023/01/29 14:57:11;;;;;;;44.40;19.33;;;2.30;99.90;;;;;;4955305;28;20031;-62
2023/01/29 14:59:49;;;;;;;45.88;20.20;;;2.30;99.90;;;;;;4956900;28;20138;-62
2023/01/29 15:02:23;;;;;;;48.97;20.50;;;4.60;99.90;;;;;;4980623;28;20023;-61
2023/01/29 15:04:53;;;;;;;39.90;18.92;;;2.40;99.90;;;;;;4988942;28;20057;-60
2023/01/29 15:07:51;;;;;;;50.63;20.95;;;2.30;99.90;;;;;;4955410;28;20490;-60
2023/01/29 15:10:40;;;;;;;48.88;20.92;;;2.30;99.90;;;;;;4955560;28;20035;-63
2023/01/29 15:13:29;;;;;;;46.35;20.67;;;2.40;99.90;;;;;;4973852;28;20034;-64
2023/01/29 15:16:15;;;;;;;42.47;18.95;;;2.30;99.90;;;;;;4981204;28;20398;-60
2023/01/29 15:18:42;;;;;;;41.13;19.38;;;2.30;99.90;;;;;;4984277;28;20533;-63
2023/01/29 15:21:15;;;;;;;45.35;20.45;;;2.20;99.90;;;;;;4977673;28;20036;-64
2023/01/29 15:23:43;;;;;;;41.60;19.92;;;2.20;99.90;;;;;;4985989;28;20097;-63
2023/01/29 15:26:17;;;;;;;38.47;19.13;;;2.20;99.90;;;;;;4980972;28;20130;-64
2023/01/29 15:28:44;;;;;;;48.45;20.88;;;2.20;99.90;;;;;;4985319;28;20042;-61
2023/01/29 15:31:16;;;;;;;53.92;21.83;;;2.50;99.90;;;;;;4981712;28;20442;-65
2023/01/29 15:33:45;;;;;;;51.00;20.52;;;2.10;99.90;;;;;;4973710;28;20450;-64
2023/01/29 15:36:19;;;;;;;47.70;20.10;;;2.10;99.90;;;;;;4973565;28;20090;-64
2023/01/29 15:38:45;;;;;;;42.88;20.13;;;2.10;99.90;;;;;;4973619;28;20034;-60
2023/01/29 15:41:18;;;;;;;46.53;19.88;;;2.10;99.90;;;;;;4628921;28;9999750;-62
2023/01/29 15:43:54;;;;;;;32.45;17.02;;;2.00;99.90;;;;;;4970975;28;20019;-63
2023/01/29 15:46:26;;;;;;;34.13;18.70;;;2.10;99.90;;;;;;4972340;28;20485;-63
2023/01/29 15:48:54;;;;;;;44.80;20.80;;;2.10;99.90;;;;;;4968461;28;20023;-64
2023/01/29 15:51:23;;;;;;;41.05;19.70;;;2.10;99.90;;;;;;4972895;28;20524;-57
2023/01/29 15:53:55;;;;;;;39.70;18.40;;;2.40;99.90;;;;;;4977489;28;20033;-61
2023/01/29 15:56:28;;;;;;;39.65;18.45;;;2.00;99.90;;;;;;4973890;28;20027;-63
2023/01/29 15:58:57;;;;;;;40.92;19.30;;;2.10;99.90;;;;;;4972374;28;20035;-63
2023/01/29 16:01:26;;;;;;;40.08;19.40;;;2.00;99.90;;;;;;4972106;28;20049;-60
2023/01/29 16:03:52;;;;;;;40.15;19.75;;;2.00;99.90;;;;;;4973056;28;20047;-63
2023/01/29 16:06:20;;;;;;;37.88;18.63;;;2.00;99.90;;;;;;4972481;28;20110;-64
2023/01/29 16:08:50;;;;;;;43.40;19.42;;;2.00;99.90;;;;;;4971516;28;20046;-61
2023/01/29 16:11:18;;;;;;;45.28;20.92;;;2.00;99.90;;;;;;4626715;28;10000250;-62
2023/01/29 16:13:46;;;;;;;45.33;21.30;;;1.90;99.90;;;;;;4970264;28;20037;-61
2023/01/29 16:16:14;;;;;;;46.80;21.25;;;2.00;99.90;;;;;;4969681;28;20026;-63
2023/01/29 16:18:43;;;;;;;41.75;20.05;;;1.90;99.90;;;;;;4969514;28;20042;-61
2023/01/29 16:21:14;;;;;;;41.85;19.73;;;2.00;99.90;;;;;;4969046;28;20031;-63
2023/01/29 16:23:48;;;;;;;37.33;17.73;;;1.90;99.90;;;;;;4969296;28;20053;-63
2023/01/29 16:26:21;;;;;;;46.00;20.67;;;1.90;99.90;;;;;;4969186;28;20039;-62
2023/01/29 16:28:47;;;;;;;45.85;20.13;;;2.00;99.90;;;;;;4969144;28;20467;-64
2023/01/29 16:31:19;;;;;;;52.30;20.65;;;2.00;99.90;;;;;;4969374;28;20038;-61
2023/01/29 16:33:45;;;;;;;40.53;19.23;;;2.00;99.90;;;;;;4968045;28;20034;-63
2023/01/29 16:36:20;;;;;;;42.00;20.20;;;2.00;99.90;;;;;;4969890;28;20026;-63
2023/01/29 16:38:49;;;;;;;40.03;19.13;;;2.00;99.90;;;;;;4968904;28;20038;-63
2023/01/29 16:41:38;;;;;;;40.95;20.42;;;2.00;99.90;;;;;;4969503;28;20019;-63
2023/01/29 16:44:06;;;;;;;41.05;19.50;;;2.00;99.90;;;;;;4963172;28;20039;-64
2023/01/29 16:46:45;;;;;;;46.53;19.27;;;2.00;99.90;;;;;;4968579;28;20521;-64
2023/01/29 16:49:29;;;;;;;45.13;20.50;;;2.00;99.90;;;;;;4970438;28;20027;-65
2023/01/29 16:51:58;;;;;;;42.87;19.53;;;2.00;99.90;;;;;;4970808;28;20035;-63
2023/01/29 16:54:25;;;;;;;46.10;20.40;;;2.00;99.90;;;;;;4950301;28;20062;-63
2023/01/29 16:56:57;;;;;;;43.13;20.17;;;2.00;99.90;;;;;;4950543;28;20791;-66
2023/01/29 16:59:36;;;;;;;42.22;19.92;;;2.00;99.90;;;;;;4955430;28;20054;-63
2023/01/29 17:02:03;;;;;;;39.45;17.63;;;1.90;99.90;;;;;;4627311;28;10001001;-62
2023/01/29 17:04:29;;;;;;;44.40;19.65;;;2.00;99.90;;;;;;4972991;28;20046;-62
2023/01/29 17:06:57;;;;;;;45.28;19.63;;;3.80;99.90;;;;;;4972563;28;20062;-61
2023/01/29 17:09:28;;;;;;;47.53;20.88;;;1.90;99.90;;;;;;4981481;28;20038;-64
2023/01/29 17:11:57;;;;;;;44.33;20.27;;;2.50;99.90;;;;;;4975706;28;20085;-64
2023/01/29 17:14:24;;;;;;;39.92;18.58;;;1.90;99.90;;;;;;4972127;28;20046;-60
2023/01/29 17:17:04;;;;;;;41.40;19.73;;;1.90;99.90;;;;;;4971632;28;20026;-60
2023/01/29 17:19:30;;;;;;;42.55;21.13;;;2.50;99.90;;;;;;4972685;28;20057;-58
2023/01/29 17:21:57;;;;;;;49.28;20.55;;;1.90;99.90;;;;;;4972245;28;20077;-63
2023/01/29 17:24:22;;;;;;;38.42;20.20;;;2.00;99.90;;;;;;4973560;28;20023;-64
2023/01/29 17:26:48;;;;;;;43.40;19.40;;;2.00;99.90;;;;;;4972575;28;20033;-63
2023/01/29 17:29:18;;;;;;;46.33;21.38;;;2.90;99.90;;;;;;4973171;28;20038;-62
2023/01/29 17:31:44;;;;;;;49.13;21.05;;;2.00;99.90;;;;;;4972088;28;20102;-63
2023/01/29 17:34:15;;;;;;;41.15;19.55;;;2.00;99.90;;;;;;4628323;28;10000400;-60
2023/01/29 17:36:43;;;;;;;44.65;20.10;;;2.60;99.90;;;;;;4970308;28;20038;-63
2023/01/29 17:39:21;;;;;;;40.97;19.83;;;2.00;99.90;;;;;;4970461;28;20027;-61
2023/01/29 17:41:49;;;;;;;41.70;19.67;;;2.00;99.90;;;;;;4970461;28;20102;-60
2023/01/29 17:44:15;;;;;;;47.50;20.60;;;1.90;99.90;;;;;;4969836;28;20030;-57
2023/01/29 17:46:42;;;;;;;43.85;20.13;;;1.90;99.90;;;;;;4970974;28;20094;-62
2023/01/29 17:49:36;;;;;;;41.78;19.67;;;1.90;99.90;;;;;;4970217;28;20053;-62
2023/01/29 17:52:02;;;;;;;40.67;20.13;;;1.90;99.90;;;;;;4969894;28;20494;-63
2023/01/29 17:54:28;;;;;;;43.38;19.77;;;1.90;99.90;;;;;;4969653;28;20231;-62
2023/01/29 17:56:53;;;;;;;48.33;19.85;;;1.90;99.90;;;;;;4969846;28;20133;-61
2023/01/29 17:59:22;;;;;;;37.85;18.73;;;1.90;99.90;;;;;;4969707;28;20429;-60
2023/01/29 18:01:48;;;;;;;50.67;20.48;;;1.90;99.90;;;;;;4969747;28;20058;-63
2023/01/29 18:04:15;;;;;;;33.47;19.23;;;1.90;99.90;;;;;;4970017;28;20082;-64
2023/01/29 18:06:41;;;;;;;35.45;19.70;;;1.90;99.90;;;;;;4972401;28;20115;-61
2023/01/29 18:09:13;;;;;;;28.42;15.27;;;1.30;99.90;;;;;;4973579;28;20023;-62
2023/01/29 18:11:39;;;;;;;38.85;18.52;;;1.90;99.90;;;;;;4972805;28;20037;-64
2023/01/29 18:14:05;;;;;;;40.53;19.17;;;1.90;99.90;;;;;;4973895;28;20591;-58
2023/01/29 18:16:37;;;;;;;41.88;20.30;;;2.30;99.90;;;;;;4972552;28;20027;-64
2023/01/29 18:19:13;;;;;;;35.35;17.75;;;1.80;99.90;;;;;;4973363;28;20118;-61
2023/01/29 18:21:39;;;;;;;50.03;19.05;;;1.80;99.90;;;;;;4972885;28;20070;-59
2023/01/29 18:24:05;;;;;;;33.15;18.08;;;1.90;99.90;;;;;;4973224;28;20079;-61
2023/01/29 18:26:30;;;;;;;41.53;17.15;;;1.80;99.90;;;;;;4973407;28;20031;-60
2023/01/29 18:28:56;;;;;;;39.55;19.00;;;1.80;99.90;;;;;;4973355;28;20027;-64
2023/01/29 18:31:21;;;;;;;42.90;18.40;;;1.80;99.90;;;;;;4972449;28;20023;-63
2023/01/29 18:33:47;;;;;;;42.80;19.98;;;1.80;99.90;;;;;;4972618;28;20053;-64
2023/01/29 18:36:13;;;;;;;27.85;15.95;;;1.80;99.90;;;;;;4973087;28;20052;-63
2023/01/29 18:38:39;;;;;;;32.75;16.83;;;1.80;99.90;;;;;;4973055;28;20065;-59
2023/01/29 18:41:09;;;;;;;37.30;17.55;;;1.80;99.90;;;;;;4972546;28;20023;-62
2023/01/29 18:43:39;;;;;;;28.50;16.15;;;1.80;99.90;;;;;;4972311;28;20050;-62
2023/01/29 18:46:05;;;;;;;29.65;16.13;;;1.80;99.90;;;;;;4972355;28;20030;-63
2023/01/29 18:48:31;;;;;;;32.92;16.40;;;2.20;99.90;;;;;;4972888;28;20166;-60
2023/01/29 18:50:57;;;;;;;34.13;15.80;;;1.80;99.90;;;;;;4972538;28;20030;-61
2023/01/29 18:53:23;;;;;;;37.17;17.95;;;1.80;99.90;;;;;;4971538;28;20037;-61
2023/01/29 18:55:57;;;;;;;29.98;15.73;;;1.80;99.90;;;;;;4988826;28;20116;-61
2023/01/29 18:58:22;;;;;;;34.30;17.60;;;1.80;99.90;;;;;;4995260;28;20054;-63
2023/01/29 19:00:48;;;;;;;35.78;16.80;;;1.90;99.90;;;;;;4983809;28;20348;-62
2023/01/29 19:03:14;;;;;;;26.88;15.68;;;1.80;99.90;;;;;;4975591;28;20394;-63
2023/01/29 19:05:39;;;;;;;29.98;15.95;;;2.10;99.90;;;;;;4974965;28;20028;-64
2023/01/29 19:08:06;;;;;;;28.25;15.45;;;1.80;99.90;;;;;;4975490;28;20037;-63
2023/01/29 19:10:31;;;;;;;25.90;14.90;;;1.90;99.90;;;;;;4975190;28;20034;-63
2023/01/29 19:12:57;;;;;;;26.10;16.08;;;1.80;99.90;;;;;;4975899;28;20114;-63
2023/01/29 19:15:23;;;;;;;25.20;14.93;;;1.80;99.90;;;;;;4975126;28;20031;-57
2023/01/29 19:17:51;;;;;;;27.83;16.75;;;1.80;99.90;;;;;;4974881;28;20027;-64
2023/01/29 19:20:17;;;;;;;29.50;15.85;;;1.80;99.90;;;;;;4975214;28;20856;-63
2023/01/29 19:22:43;;;;;;;22.88;14.93;;;1.80;99.90;;;;;;4979201;28;20055;-63
2023/01/29 19:25:09;;;;;;;29.08;15.85;;;1.80;99.90;;;;;;4978277;28;20482;-62
2023/01/29 19:27:35;;;;;;;27.35;15.50;;;1.80;99.90;;;;;;4977115;28;20042;-64
2023/01/29 19:30:04;;;;;;;27.33;15.73;;;1.80;99.90;;;;;;4973524;28;20394;-63
2023/01/29 19:32:30;;;;;;;24.80;15.52;;;1.70;99.90;;;;;;4975157;28;20039;-63
2023/01/29 19:34:56;;;;;;;29.70;15.35;;;1.70;99.90;;;;;;4975169;28;20746;-60
2023/01/29 19:37:23;;;;;;;30.73;15.45;;;1.80;99.90;;;;;;4974816;28;20517;-62
2023/01/29 19:39:49;;;;;;;25.50;15.07;;;1.70;99.90;;;;;;4975058;28;20105;-63
2023/01/29 19:42:15;;;;;;;21.05;13.98;;;0.30;99.90;;;;;;4974899;28;20067;-62
2023/01/29 19:44:41;;;;;;;24.83;13.93;;;1.80;99.90;;;;;;4975200;28;20050;-62
2023/01/29 19:47:06;;;;;;;20.15;12.65;;;1.80;99.90;;;;;;4974342;28;20607;-62
2023/01/29 19:49:33;;;;;;;25.58;14.50;;;1.80;99.90;;;;;;4975014;28;20038;-59
2023/01/29 19:51:59;;;;;;;19.58;12.00;;;1.80;99.90;;;;;;4974277;28;20057;-56
2023/01/29 19:54:29;;;;;;;18.00;12.85;;;2.10;99.90;;;;;;4974684;28;20034;-62
2023/01/29 19:56:55;;;;;;;16.02;11.88;;;1.80;99.90;;;;;;4974169;28;20087;-63
2023/01/29 19:59:21;;;;;;;21.23;11.98;;;1.90;99.90;;;;;;4974351;28;20023;-63
2023/01/29 20:01:46;;;;;;;17.95;11.82;;;1.80;99.90;;;;;;4974194;28;20394;-62
2023/01/29 20:04:12;;;;;;;17.80;11.18;;;1.90;99.90;;;;;;4974336;28;20019;-63
2023/01/29 20:06:38;;;;;;;17.13;11.43;;;1.90;99.90;;;;;;4973975;28;20082;-63
2023/01/29 20:09:03;;;;;;;16.45;11.30;;;1.90;99.90;;;;;;4974210;28;20027;-63
2023/01/29 20:11:30;;;;;;;15.18;11.02;;;1.80;99.90;;;;;;4972551;28;20027;-63
2023/01/29 20:13:56;;;;;;;15.98;11.57;;;1.90;99.90;;;;;;4974072;28;20397;-62
2023/01/29 20:16:24;;;;;;;12.18;10.85;;;1.90;99.90;;;;;;4973827;28;20025;-62
2023/01/29 20:18:50;;;;;;;15.60;11.45;;;1.80;99.90;;;;;;4974356;28;20038;-62
2023/01/29 20:21:19;;;;;;;13.93;10.15;;;1.80;99.90;;;;;;4982954;23;20384;-62
2023/01/29 20:23:45;;;;;;;17.02;11.48;;;1.90;99.90;;;;;;4954681;28;20062;-61
2023/01/29 20:26:13;;;;;;;22.33;11.57;;;1.80;99.90;;;;;;4953511;29;20479;-60
2023/01/29 20:28:39;;;;;;;16.38;9.85;;;1.80;99.90;;;;;;4953044;28;20109;-61
2023/01/29 20:31:06;;;;;;;17.38;10.93;;;1.80;99.90;;;;;;4952201;28;20031;-60
2023/01/29 20:33:32;;;;;;;13.13;9.43;;;1.80;99.90;;;;;;4953456;28;20033;-60
2023/01/29 20:36:01;;;;;;;23.70;9.43;;;1.80;99.90;;;;;;4954771;28;20113;-62
2023/01/29 20:38:30;;;;;;;16.25;11.57;;;1.80;99.90;;;;;;4955356;29;20034;-62
2023/01/29 20:41:04;;;;;;;20.90;10.85;;;1.80;99.90;;;;;;4948906;29;20483;-62
2023/01/29 20:43:30;;;;;;;12.07;10.30;;;1.80;99.90;;;;;;4935472;29;20024;-61
2023/01/29 20:45:57;;;;;;;13.13;10.43;;;1.70;99.90;;;;;;4935447;29;20790;-60
2023/01/29 20:48:23;;;;;;;19.90;11.70;;;1.70;99.90;;;;;;4934393;29;20028;-61
2023/01/29 20:50:48;;;;;;;16.05;10.60;;;1.70;99.90;;;;;;4934056;29;20508;-62
2023/01/29 20:53:14;;;;;;;16.02;11.25;;;1.70;99.90;;;;;;4934598;29;20039;-61
2023/01/29 20:55:40;;;;;;;23.42;11.63;;;1.70;99.90;;;;;;4934302;29;20039;-61
2023/01/29 20:58:06;;;;;;;13.23;10.57;;;1.70;99.90;;;;;;4933896;29;20035;-61
2023/01/29 21:00:31;;;;;;;11.10;9.85;;;2.30;99.90;;;;;;4935327;29;20032;-62
2023/01/29 21:02:57;;;;;;;12.32;10.45;;;1.70;99.90;;;;;;4953947;28;20549;-62
2023/01/29 21:05:23;;;;;;;13.55;10.88;;;1.60;99.90;;;;;;4953540;28;20106;-57
2023/01/29 21:07:48;;;;;;;17.33;10.98;;;1.70;99.90;;;;;;4953302;29;20027;-61
2023/01/29 21:10:14;;;;;;;18.67;10.68;;;1.60;99.90;;;;;;4953498;29;20023;-61
2023/01/29 21:12:40;;;;;;;14.93;11.10;;;1.70;99.90;;;;;;4940561;29;20019;-61
2023/01/29 21:15:06;;;;;;;17.05;12.40;;;1.70;99.90;;;;;;4938060;28;20087;-61
2023/01/29 21:17:32;;;;;;;11.48;10.25;;;1.70;99.90;;;;;;4935756;29;20465;-62
2023/01/29 21:19:57;;;;;;;12.77;9.63;;;2.00;99.90;;;;;;4949287;28;20030;-63
2023/01/29 21:22:23;;;;;;;15.30;11.07;;;1.70;99.90;;;;;;4953662;28;20054;-62
2023/01/29 21:24:49;;;;;;;12.05;9.80;;;2.30;99.90;;;;;;4952837;29;20086;-62
2023/01/29 21:27:14;;;;;;;11.57;10.48;;;2.30;99.90;;;;;;4950113;28;20039;-62
2023/01/29 21:29:40;;;;;;;12.60;11.07;;;2.30;99.90;;;;;;4937886;29;20027;-63
2023/01/29 21:32:07;;;;;;;14.93;11.02;;;1.70;99.90;;;;;;4936868;29;20114;-64
2023/01/29 21:34:33;;;;;;;21.08;11.00;;;1.70;99.90;;;;;;4952046;28;20117;-62
2023/01/29 21:36:59;;;;;;;16.13;10.05;;;1.70;99.90;;;;;;4944905;29;20035;-62
2023/01/29 21:39:25;;;;;;;14.50;10.20;;;1.70;99.90;;;;;;4951345;28;20019;-63
2023/01/29 21:44:36;;;;;;;16.30;11.52;;;1.70;99.90;;;;;;4943260;29;20458;-64
2023/01/29 21:47:11;;;;;;;15.80;11.90;;;1.80;99.90;;;;;;4955896;28;20422;-62
2023/01/29 21:49:41;;;;;;;16.48;11.52;;;1.80;99.90;;;;;;4956467;29;20028;-62
2023/01/29 21:52:07;;;;;;;20.17;11.40;;;1.60;99.90;;;;;;4945247;28;20047;-63
2023/01/29 21:54:44;;;;;;;15.40;10.85;;;1.60;99.90;;;;;;4956896;28;20061;-64
2023/01/29 21:57:14;;;;;;;18.05;11.70;;;1.60;99.90;;;;;;4957113;29;20164;-61
2023/01/29 21:59:40;;;;;;;16.95;12.68;;;1.60;99.90;;;;;;4953887;28;20062;-63
2023/01/29 22:02:12;;;;;;;20.88;11.57;;;1.60;99.90;;;;;;4948146;28;20024;-65
2023/01/29 22:04:37;;;;;;;13.75;11.10;;;1.50;99.90;;;;;;4954563;29;20038;-62
2023/01/29 22:07:03;;;;;;;20.63;11.52;;;2.10;99.90;;;;;;4943044;28;20058;-63
2023/01/29 22:09:28;;;;;;;16.52;11.98;;;1.60;99.90;;;;;;4949074;29;20042;-64
2023/01/29 22:11:54;;;;;;;19.17;12.25;;;1.60;99.90;;;;;;4953947;28;20038;-63
2023/01/29 22:14:20;;;;;;;19.75;12.07;;;1.60;99.90;;;;;;4944420;28;20498;-62
2023/01/29 22:16:45;;;;;;;19.60;12.43;;;1.50;99.90;;;;;;4959209;28;20042;-63
2023/01/29 22:19:12;;;;;;;12.55;10.40;;;3.90;99.90;;;;;;4965941;28;20032;-63
2023/01/29 22:21:37;;;;;;;18.65;11.10;;;1.50;99.90;;;;;;4968846;28;20118;-62
2023/01/29 22:24:04;;;;;;;16.50;11.35;;;1.50;99.90;;;;;;4954073;29;20062;-60
2023/01/29 22:26:30;;;;;;;14.13;11.18;;;1.50;99.90;;;;;;4950302;29;20091;-62
2023/01/29 22:28:56;;;;;;;19.52;11.98;;;1.50;99.90;;;;;;4940222;28;20062;-63
2023/01/29 22:31:22;;;;;;;15.63;11.23;;;2.20;99.90;;;;;;4947546;29;20067;-64
2023/01/29 22:33:48;;;;;;;19.38;12.18;;;1.50;99.90;;;;;;4943464;29;20032;-64
2023/01/29 22:36:13;;;;;;;19.02;12.48;;;1.50;99.90;;;;;;4952819;28;20059;-62
2023/01/29 22:38:41;;;;;;;17.42;11.32;;;1.60;99.90;;;;;;4954177;28;20086;-63
2023/01/29 22:41:09;;;;;;;12.93;11.10;;;1.60;99.90;;;;;;4951288;28;20028;-62
2023/01/29 22:43:35;;;;;;;20.55;11.45;;;1.50;99.90;;;;;;4950274;28;20027;-63
2023/01/29 22:46:00;;;;;;;13.40;10.65;;;2.00;99.90;;;;;;4947822;29;20122;-61
2023/01/29 22:48:27;;;;;;;10.82;9.68;;;1.50;99.90;;;;;;4951331;28;20035;-61
2023/01/29 22:51:08;;;;;;;17.00;11.82;;;1.50;99.90;;;;;;4943820;29;20091;-62
2023/01/29 22:53:41;;;;;;;17.60;11.05;;;1.50;99.90;;;;;;4951213;29;20035;-60
2023/01/29 22:56:08;;;;;;;14.95;10.40;;;1.50;99.90;;;;;;4954839;28;20054;-60
2023/01/29 22:58:34;;;;;;;15.00;10.35;;;1.50;99.90;;;;;;4946850;28;20387;-61
2023/01/29 23:00:59;;;;;;;19.83;10.35;;;1.50;99.90;;;;;;4947987;28;20027;-61
2023/01/29 23:03:25;;;;;;;11.82;10.13;;;1.50;99.90;;;;;;4945408;29;20023;-61
2023/01/29 23:05:51;;;;;;;14.27;10.90;;;1.50;99.90;;;;;;4954562;29;20043;-61
2023/01/29 23:08:16;;;;;;;12.93;10.63;;;1.50;99.90;;;;;;4953232;29;20023;-63
2023/01/29 23:10:42;;;;;;;12.27;10.63;;;1.50;99.90;;;;;;4603860;28;10000086;-61
2023/01/29 23:13:08;;;;;;;15.15;10.85;;;1.40;99.90;;;;;;4942453;29;20291;-62
2023/01/29 23:15:33;;;;;;;16.83;10.52;;;1.40;99.90;;;;;;4948799;29;20158;-59
2023/01/29 23:17:59;;;;;;;14.38;9.98;;;2.40;99.90;;;;;;4948393;29;20499;-61
2023/01/29 23:20:25;;;;;;;11.88;10.57;;;1.50;99.90;;;;;;4932845;29;20525;-60
2023/01/29 23:22:50;;;;;;;22.60;12.25;;;1.40;99.90;;;;;;4932829;29;20046;-61
2023/01/29 23:25:16;;;;;;;15.90;10.90;;;1.80;99.90;;;;;;4937041;29;20093;-61
2023/01/29 23:27:41;;;;;;;15.68;10.40;;;2.10;99.90;;;;;;4943733;29;20495;-61
2023/01/29 23:30:08;;;;;;;14.55;11.40;;;1.50;99.90;;;;;;4960187;28;20066;-63
2023/01/29 23:32:34;;;;;;;20.77;11.70;;;1.50;99.90;;;;;;4970937;28;20113;-60
2023/01/29 23:34:59;;;;;;;12.98;10.63;;;1.60;99.90;;;;;;4950432;28;20707;-60
2023/01/29 23:37:25;;;;;;;18.98;12.02;;;1.50;99.90;;;;;;4952026;29;20034;-63
2023/01/29 23:39:51;;;;;;;15.40;10.32;;;1.70;99.90;;;;;;4941153;28;20459;-61
2023/01/29 23:42:17;;;;;;;13.50;7.93;;;1.50;99.90;;;;;;4951985;29;20055;-60
2023/01/29 23:44:42;;;;;;;14.15;9.85;;;1.50;99.90;;;;;;4950021;28;20035;-60
2023/01/29 23:47:08;;;;;;;17.90;10.93;;;1.50;99.90;;;;;;4950883;28;20497;-61
2023/01/29 23:49:34;;;;;;;16.52;11.57;;;1.90;99.90;;;;;;4940455;29;20417;-60
2023/01/29 23:52:00;;;;;;;13.82;11.30;;;1.50;99.90;;;;;;4950981;29;20035;-56
2023/01/29 23:54:25;;;;;;;14.90;11.00;;;1.50;99.90;;;;;;4949417;28;20046;-61
2023/01/29 23:56:51;;;;;;;15.70;11.57;;;1.70;99.90;;;;;;4951146;28;20406;-60
2023/01/29 23:59:17;;;;;;;18.95;10.77;;;1.50;99.90;;;;;;4950380;28;20027;-60
